createdAt,value
2019-05-23T00:00:34.866Z,100163.35
2019-05-23T00:05:03.630Z,100163.16
2019-05-23T00:09:23.660Z,100164.30
2019-05-23T00:13:43.530Z,100163.00
2019-05-23T00:17:48.786Z,100172.42
2019-05-23T00:21:52.765Z,100167.20
2019-05-23T00:25:55.476Z,100167.39
2019-05-23T00:29:59.105Z,100173.97
2019-05-23T00:34:02.860Z,100175.12
2019-05-23T00:38:05.975Z,100180.14
2019-05-23T00:42:07.837Z,100176.56
2019-05-23T00:46:10.067Z,100180.44
2019-05-23T00:50:13.026Z,100180.44
2019-05-23T00:54:16.147Z,100174.70
2019-05-23T00:58:19.404Z,100176.70
2019-05-23T01:02:21.398Z,100184.29
2019-05-23T01:06:23.818Z,100182.83
2019-05-23T01:10:26.017Z,100189.77
2019-05-23T01:14:28.856Z,100182.69
2019-05-23T01:18:31.150Z,100187.23
2019-05-23T01:22:33.300Z,100188.06
2019-05-23T01:26:35.861Z,100186.17
2019-05-23T01:30:43.465Z,100192.02
2019-05-23T01:34:46.369Z,100200.42
2019-05-23T01:38:48.288Z,100202.27
2019-05-23T01:42:51.649Z,100211.16
2019-05-23T01:46:53.709Z,100212.98
2019-05-23T01:50:57.802Z,100208.94
2019-05-23T01:55:00.559Z,100211.45
2019-05-23T01:59:02.909Z,100205.40
2019-05-23T02:03:05.009Z,100217.02
2019-05-23T02:07:07.459Z,100215.47
2019-05-23T02:11:10.854Z,100220.02
2019-05-23T02:15:14.211Z,100227.09
2019-05-23T02:19:16.649Z,100226.94
2019-05-23T02:23:20.011Z,100231.48
2019-05-23T02:27:23.370Z,100237.07
2019-05-23T02:31:25.356Z,100233.73
2019-05-23T02:35:27.410Z,100234.58
2019-05-23T02:39:37.096Z,100231.05
2019-05-23T02:43:44.855Z,100225.00
2019-05-23T02:47:51.389Z,100232.08
2019-05-23T02:51:56.744Z,100241.00
2019-05-23T02:56:01.866Z,100249.89
2019-05-23T03:00:19.233Z,100246.19
2019-05-23T03:04:25.155Z,100249.23
2019-05-23T03:08:29.097Z,100250.23
2019-05-23T03:12:32.034Z,100246.03
2019-05-23T03:16:36.392Z,100256.61
2019-05-23T03:20:39.069Z,100253.92
2019-05-23T03:24:42.335Z,100245.84
2019-05-23T03:28:44.211Z,100242.81
2019-05-23T03:32:50.153Z,100246.03
2019-05-23T03:36:53.356Z,100249.23
2019-05-23T03:41:00.622Z,100245.00
2019-05-23T03:45:07.362Z,100247.03
2019-05-23T03:49:11.583Z,100249.34
2019-05-23T03:53:13.586Z,100246.09
2019-05-23T03:57:17.085Z,100254.50
2019-05-23T04:01:22.572Z,100249.45
2019-05-23T04:05:25.927Z,100253.30
2019-05-23T04:09:28.105Z,100254.48
2019-05-23T04:13:30.741Z,100257.17
2019-05-23T04:17:32.651Z,100265.53
2019-05-23T04:21:34.507Z,100262.31
2019-05-23T04:25:37.354Z,100265.49
2019-05-23T04:29:39.286Z,100269.05
2019-05-23T04:33:41.204Z,100270.59
2019-05-23T04:37:45.042Z,100283.92
2019-05-23T04:41:46.945Z,100284.80
2019-05-23T04:45:48.889Z,100287.96
2019-05-23T04:49:50.709Z,100289.80
2019-05-23T04:53:54.850Z,100291.15
2019-05-23T04:57:56.658Z,100304.45
2019-05-23T05:01:59.018Z,100312.24
2019-05-23T05:06:02.053Z,100315.59
2019-05-23T05:10:04.269Z,100322.18
2019-05-23T05:14:06.801Z,100324.72
2019-05-23T05:18:09.426Z,100332.45
2019-05-23T05:22:11.369Z,100330.64
2019-05-23T05:26:20.532Z,100342.77
2019-05-23T05:30:23.185Z,100336.76
2019-05-23T05:34:25.119Z,100340.44
2019-05-23T05:38:28.981Z,100339.44
2019-05-23T05:42:32.473Z,100339.94
2019-05-23T05:46:34.601Z,100331.87
2019-05-23T05:50:36.742Z,100339.09
2019-05-23T05:54:38.611Z,100334.34
2019-05-23T05:58:40.387Z,100338.03
2019-05-23T06:02:42.938Z,100349.17
2019-05-23T06:06:52.389Z,100356.77
2019-05-23T06:10:54.770Z,100367.20
2019-05-23T06:14:56.708Z,100373.23
2019-05-23T06:18:58.891Z,100382.48
2019-05-23T06:23:01.319Z,100390.89
2019-05-23T06:27:04.065Z,100394.21
2019-05-23T06:31:06.579Z,100407.92
2019-05-23T06:35:08.829Z,100412.75
2019-05-23T06:39:12.595Z,100421.95
2019-05-23T06:43:14.713Z,100420.70
2019-05-23T06:47:17.829Z,100430.08
2019-05-23T06:51:20.230Z,100431.10
2019-05-23T06:55:22.166Z,100435.80
2019-05-23T06:59:24.150Z,100436.36
2019-05-23T07:03:41.460Z,100440.53
2019-05-23T07:07:32.641Z,100439.19
2019-05-23T07:11:34.550Z,100440.59
2019-05-23T07:15:36.346Z,100444.02
2019-05-23T07:19:38.085Z,100444.39
2019-05-23T07:23:40.037Z,100449.81
2019-05-23T07:27:42.719Z,100451.52
2019-05-23T07:31:44.783Z,100450.66
2019-05-23T07:35:46.646Z,100456.16
2019-05-23T07:39:49.418Z,100459.25
2019-05-23T07:43:52.163Z,100465.11
2019-05-23T07:47:54.663Z,100476.41
2019-05-23T07:51:56.404Z,100471.90
2019-05-23T07:56:00.087Z,100476.41
2019-05-23T08:00:04.066Z,100479.09
2019-05-23T08:04:20.709Z,100488.98
2019-05-23T08:08:10.199Z,100487.64
2019-05-23T08:12:12.183Z,100494.89
2019-05-23T08:16:15.109Z,100485.52
2019-05-23T08:20:18.409Z,100478.67
2019-05-23T08:24:20.447Z,100484.05
2019-05-23T08:28:23.307Z,100484.76
2019-05-23T08:32:25.159Z,100488.63
2019-05-23T08:36:27.036Z,100493.19
2019-05-23T08:40:39.644Z,100492.00
2019-05-23T08:44:41.700Z,100505.31
2019-05-23T08:48:44.195Z,100500.28
2019-05-23T08:52:46.403Z,100512.06
2019-05-23T08:56:48.150Z,100516.56
2019-05-23T09:00:50.309Z,100523.98
2019-05-23T09:05:04.225Z,100529.51
2019-05-23T09:08:56.658Z,100536.57
2019-05-23T09:13:02.870Z,100537.78
2019-05-23T09:17:06.081Z,100536.92
2019-05-23T09:21:09.064Z,100532.55
2019-05-23T09:25:11.772Z,100531.20
2019-05-23T09:29:14.318Z,100534.23
2019-05-23T09:33:16.865Z,100542.98
2019-05-23T09:37:19.451Z,100544.34
2019-05-23T09:41:21.687Z,100544.86
2019-05-23T09:45:23.907Z,100545.51
2019-05-23T09:49:26.151Z,100552.57
2019-05-23T09:53:28.575Z,100560.95
2019-05-23T09:57:31.231Z,100566.81
2019-05-23T10:01:33.428Z,100560.94
2019-05-23T10:05:43.405Z,100569.19
2019-05-23T10:09:41.275Z,100572.19
2019-05-23T10:13:43.385Z,100578.01
2019-05-23T10:17:45.705Z,100574.45
2019-05-23T10:21:47.907Z,100565.16
2019-05-23T10:25:50.077Z,100559.27
2019-05-23T10:29:52.395Z,100565.15
2019-05-23T10:33:54.350Z,100559.26
2019-05-23T10:37:56.540Z,100561.41
2019-05-23T10:41:59.813Z,100566.47
2019-05-23T10:46:02.075Z,100572.41
2019-05-23T10:50:08.162Z,100576.73
2019-05-23T10:54:10.467Z,100575.83
2019-05-23T10:58:13.369Z,100574.16
2019-05-23T11:02:16.337Z,100573.15
2019-05-23T11:06:18.624Z,100570.62
2019-05-23T11:10:22.165Z,100571.27
2019-05-23T11:14:24.559Z,100577.03
2019-05-23T11:18:26.653Z,100572.96
2019-05-23T11:22:29.112Z,100575.11
2019-05-23T11:26:31.125Z,100574.30
2019-05-23T11:30:45.999Z,100571.80
2019-05-23T11:34:48.085Z,100578.88
2019-05-23T11:38:50.310Z,100579.06
2019-05-23T11:42:52.948Z,100581.42
2019-05-23T11:46:55.626Z,100577.55
2019-05-23T11:50:59.170Z,100575.34
2019-05-23T11:55:01.412Z,100567.06
2019-05-23T11:59:05.124Z,100560.47
2019-05-23T12:03:09.478Z,100568.48
2019-05-23T12:07:22.229Z,100565.66
2019-05-23T12:11:24.536Z,100563.41
2019-05-23T12:15:28.751Z,100570.21
2019-05-23T12:19:31.118Z,100570.41
2019-05-23T12:23:33.375Z,100563.86
2019-05-23T12:27:35.829Z,100559.57
2019-05-23T12:31:38.156Z,100550.65
2019-05-23T12:35:40.413Z,100547.98
2019-05-23T12:39:43.630Z,100540.70
2019-05-23T12:43:46.074Z,100529.13
2019-05-23T12:47:56.654Z,100525.11
2019-05-23T12:52:01.364Z,100526.15
2019-05-23T12:56:04.204Z,100524.80
2019-05-23T13:00:09.200Z,100520.48
2019-05-23T13:04:11.803Z,100527.16
2019-05-23T13:08:16.751Z,100532.29
2019-05-23T13:12:19.247Z,100528.45
2019-05-23T13:16:21.528Z,100529.56
2019-05-23T13:20:24.249Z,100529.51
2019-05-23T13:24:26.439Z,100530.98
2019-05-23T13:28:28.850Z,100531.70
2019-05-23T13:32:31.020Z,100526.88
2019-05-23T13:36:33.439Z,100522.78
2019-05-23T13:40:36.646Z,100524.74
2019-05-23T13:44:39.294Z,100529.66
2019-05-23T13:48:41.881Z,100524.58
2019-05-23T13:52:45.712Z,100517.16
2019-05-23T13:56:48.225Z,100525.33
2019-05-23T14:00:50.705Z,100526.05
2019-05-23T14:04:52.965Z,100531.48
2019-05-23T14:08:56.284Z,100534.25
2019-05-23T14:12:58.590Z,100550.88
2019-05-23T14:17:18.347Z,100551.53
2019-05-23T14:21:20.511Z,100554.72
2019-05-23T14:25:23.438Z,100540.66
2019-05-23T14:29:25.630Z,100548.06
2019-05-23T14:33:47.043Z,100550.25
2019-05-23T14:37:52.659Z,100558.48
2019-05-23T14:42:00.586Z,100553.39
2019-05-23T14:46:08.735Z,100557.62
2019-05-23T14:50:32.255Z,100540.16
2019-05-23T14:54:45.545Z,100542.63
2019-05-23T14:58:48.414Z,100542.43
2019-05-23T15:02:50.823Z,100537.66
2019-05-23T15:06:53.008Z,100537.44
2019-05-23T15:10:55.199Z,100544.30
2019-05-23T15:14:57.402Z,100535.98
2019-05-23T15:18:59.518Z,100530.94
2019-05-23T15:23:01.518Z,100527.95
2019-05-23T15:27:03.915Z,100529.83
2019-05-23T15:31:06.461Z,100529.16
2019-05-23T15:35:08.283Z,100529.06
2019-05-23T15:39:11.027Z,100532.55
2019-05-23T15:43:12.862Z,100538.28
2019-05-23T15:47:14.943Z,100538.70
2019-05-23T15:51:21.056Z,100535.26
2019-05-23T15:55:45.169Z,100537.35
2019-05-23T16:00:09.597Z,100552.54
2019-05-23T16:04:13.848Z,100546.41
2019-05-23T16:08:15.864Z,100560.02
2019-05-23T16:12:18.016Z,100556.63
2019-05-23T16:16:19.910Z,100560.53
2019-05-23T16:20:22.347Z,100550.36
2019-05-23T16:24:24.458Z,100554.39
2019-05-23T16:28:26.558Z,100553.53
2019-05-23T16:32:28.383Z,100555.84
2019-05-23T16:36:30.817Z,100560.81
2019-05-23T16:40:33.136Z,100573.36
2019-05-23T16:44:35.280Z,100580.20
2019-05-23T16:48:38.662Z,100584.96
2019-05-23T16:52:41.162Z,100585.89
2019-05-23T16:56:56.963Z,100584.06
2019-05-23T17:01:20.334Z,100586.30
2019-05-23T17:05:30.922Z,100587.62
2019-05-23T17:10:06.911Z,100588.10
2019-05-23T17:14:02.168Z,100599.22
2019-05-23T17:18:32.647Z,100608.30
2019-05-23T17:23:00.960Z,100610.38
2019-05-23T17:27:08.805Z,100612.64
2019-05-23T17:31:16.255Z,100619.20
2019-05-23T17:35:18.612Z,100618.16
2019-05-23T17:39:21.028Z,100626.39
2019-05-23T17:43:23.388Z,100624.80
2019-05-23T17:47:25.897Z,100634.20
2019-05-23T17:51:28.263Z,100630.55
2019-05-23T17:55:32.176Z,100643.01
2019-05-23T17:59:34.388Z,100645.70
2019-05-23T18:03:37.925Z,100642.76
2019-05-23T18:07:41.845Z,100643.20
2019-05-23T18:11:44.020Z,100644.92
2019-05-23T18:15:46.247Z,100642.11
2019-05-23T18:19:48.372Z,100639.00
2019-05-23T18:23:50.812Z,100635.80
2019-05-23T18:27:53.525Z,100634.23
2019-05-23T18:31:56.231Z,100634.81
2019-05-23T18:35:58.929Z,100643.42
2019-05-23T18:40:01.136Z,100643.45
2019-05-23T18:44:03.605Z,100651.67
2019-05-23T18:48:08.558Z,100640.08
2019-05-23T18:52:11.207Z,100638.20
2019-05-23T18:56:13.422Z,100635.86
2019-05-23T19:00:17.721Z,100635.16
2019-05-23T19:04:20.785Z,100641.16
2019-05-23T19:08:23.630Z,100650.84
2019-05-23T19:12:26.259Z,100658.85
2019-05-23T19:16:29.299Z,100657.17
2019-05-23T19:20:31.863Z,100669.08
2019-05-23T19:24:34.486Z,100681.23
2019-05-23T19:28:37.440Z,100682.56
2019-05-23T19:32:39.481Z,100683.20
2019-05-23T19:36:41.922Z,100688.39
2019-05-23T19:40:45.121Z,100679.53
2019-05-23T19:44:47.337Z,100673.23
2019-05-23T19:48:50.219Z,100672.15
2019-05-23T19:52:52.726Z,100669.26
2019-05-23T19:56:54.893Z,100674.14
2019-05-23T20:00:57.243Z,100665.66
2019-05-23T20:05:03.575Z,100674.77
2019-05-23T20:09:11.237Z,100682.20
2019-05-23T20:13:13.575Z,100687.16
2019-05-23T20:17:16.123Z,100687.53
2019-05-23T20:21:18.553Z,100690.45
2019-05-23T20:25:20.782Z,100693.12
2019-05-23T20:29:22.895Z,100689.83
2019-05-23T20:33:26.051Z,100687.05
2019-05-23T20:37:30.338Z,100692.61
2019-05-23T20:41:32.669Z,100679.65
2019-05-23T20:45:35.072Z,100674.28
2019-05-23T20:49:37.468Z,100676.24
2019-05-23T20:53:39.567Z,100679.28
2019-05-23T20:57:41.780Z,100680.25
2019-05-23T21:01:44.489Z,100677.58
2019-05-23T21:05:47.023Z,100678.39
2019-05-23T21:09:49.261Z,100674.06
2019-05-23T21:13:51.719Z,100668.58
2019-05-23T21:17:53.878Z,100664.95
2019-05-23T21:21:56.059Z,100657.83
2019-05-23T21:26:02.598Z,100649.45
2019-05-23T21:30:05.056Z,100639.04
2019-05-23T21:34:07.670Z,100644.27
2019-05-23T21:38:10.233Z,100654.70
2019-05-23T21:42:12.754Z,100663.41
2019-05-23T21:46:15.324Z,100658.81
2019-05-23T21:50:17.532Z,100648.15
2019-05-23T21:54:19.964Z,100649.11
2019-05-23T21:58:21.984Z,100651.07
2019-05-23T22:02:30.507Z,100660.75
2019-05-23T22:06:33.842Z,100663.07
2019-05-23T22:10:37.685Z,100663.41
2019-05-23T22:14:39.837Z,100659.07
2019-05-23T22:18:42.045Z,100656.89
2019-05-23T22:22:44.187Z,100660.89
2019-05-23T22:26:46.419Z,100665.73
2019-05-23T22:30:48.615Z,100657.26
2019-05-23T22:35:01.455Z,100651.20
2019-05-23T22:39:03.765Z,100650.10
2019-05-23T22:43:20.197Z,100648.44
2019-05-23T22:47:09.749Z,100641.39
2019-05-23T22:51:11.756Z,100629.02
2019-05-23T22:55:14.004Z,100628.80
2019-05-23T22:59:16.132Z,100626.27
2019-05-23T23:03:18.387Z,100622.75
2019-05-23T23:07:20.662Z,100616.57
2019-05-23T23:11:23.201Z,100608.68
2019-05-23T23:15:28.001Z,100608.68
2019-05-23T23:19:30.317Z,100611.97
2019-05-23T23:23:32.476Z,100608.34
2019-05-23T23:27:34.758Z,100598.64
2019-05-23T23:31:38.023Z,100597.94
2019-05-23T23:35:40.104Z,100603.27
2019-05-23T23:39:42.295Z,100612.59
2019-05-23T23:43:58.871Z,100610.89
2019-05-23T23:48:05.982Z,100598.05
2019-05-23T23:52:25.948Z,100578.42
2019-05-23T23:56:46.053Z,100570.91
